sensor_id;sensor_type;location;lat;lon;timestamp;P1;durP1;ratioP1;P2;durP2;ratioP2
46931;SDS011;32670;51.464;11.964;2023-04-19T00:01:29;2.80;;;2.60;;
46931;SDS011;32670;51.464;11.964;2023-04-19T00:03:55;3.00;;;2.80;;
46931;SDS011;32670;51.464;11.964;2023-04-19T00:06:20;4.07;;;2.80;;
46931;SDS011;32670;51.464;11.964;2023-04-19T00:08:46;2.87;;;2.67;;
46931;SDS011;32670;51.464;11.964;2023-04-19T00:11:12;3.20;;;2.90;;
46931;SDS011;32670;51.464;11.964;2023-04-19T00:13:37;4.20;;;2.80;;
46931;SDS011;32670;51.464;11.964;2023-04-19T00:16:03;2.87;;;2.57;;
46931;SDS011;32670;51.464;11.964;2023-04-19T00:18:29;2.97;;;2.77;;
46931;SDS011;32670;51.464;11.964;2023-04-19T00:20:54;2.63;;;2.43;;
46931;SDS011;32670;51.464;11.964;2023-04-19T00:23:20;3.00;;;2.37;;
46931;SDS011;32670;51.464;11.964;2023-04-19T00:25:47;2.70;;;2.50;;
46931;SDS011;32670;51.464;11.964;2023-04-19T00:28:12;2.70;;;2.50;;
46931;SDS011;32670;51.464;11.964;2023-04-19T00:30:38;2.80;;;2.60;;
46931;SDS011;32670;51.464;11.964;2023-04-19T00:33:03;2.80;;;2.60;;
46931;SDS011;32670;51.464;11.964;2023-04-19T00:35:29;3.00;;;2.73;;
46931;SDS011;32670;51.464;11.964;2023-04-19T00:37:54;3.10;;;2.80;;
46931;SDS011;32670;51.464;11.964;2023-04-19T00:40:20;2.57;;;2.37;;
46931;SDS011;32670;51.464;11.964;2023-04-19T00:42:45;3.40;;;2.87;;
46931;SDS011;32670;51.464;11.964;2023-04-19T00:45:11;3.00;;;2.77;;
46931;SDS011;32670;51.464;11.964;2023-04-19T00:47:37;4.37;;;2.87;;
46931;SDS011;32670;51.464;11.964;2023-04-19T00:50:02;3.83;;;2.90;;
46931;SDS011;32670;51.464;11.964;2023-04-19T00:52:28;4.47;;;2.77;;
46931;SDS011;32670;51.464;11.964;2023-04-19T00:54:54;3.57;;;2.70;;
46931;SDS011;32670;51.464;11.964;2023-04-19T00:57:20;5.40;;;2.43;;
46931;SDS011;32670;51.464;11.964;2023-04-19T00:59:46;2.83;;;2.53;;
46931;SDS011;32670;51.464;11.964;2023-04-19T01:02:13;3.30;;;2.70;;
46931;SDS011;32670;51.464;11.964;2023-04-19T01:04:38;2.73;;;2.43;;
46931;SDS011;32670;51.464;11.964;2023-04-19T01:07:04;3.07;;;2.77;;
46931;SDS011;32670;51.464;11.964;2023-04-19T01:09:30;8.80;;;2.80;;
46931;SDS011;32670;51.464;11.964;2023-04-19T01:11:56;3.37;;;2.30;;
46931;SDS011;32670;51.464;11.964;2023-04-19T01:14:21;3.80;;;2.47;;
46931;SDS011;32670;51.464;11.964;2023-04-19T01:16:47;3.80;;;2.73;;
46931;SDS011;32670;51.464;11.964;2023-04-19T01:19:12;2.60;;;2.40;;
46931;SDS011;32670;51.464;11.964;2023-04-19T01:21:38;3.83;;;2.20;;
46931;SDS011;32670;51.464;11.964;2023-04-19T01:24:04;2.80;;;2.60;;
46931;SDS011;32670;51.464;11.964;2023-04-19T01:26:30;3.77;;;2.47;;
46931;SDS011;32670;51.464;11.964;2023-04-19T01:28:55;5.70;;;2.77;;
46931;SDS011;32670;51.464;11.964;2023-04-19T01:31:21;2.77;;;2.53;;
46931;SDS011;32670;51.464;11.964;2023-04-19T01:33:46;3.00;;;2.50;;
46931;SDS011;32670;51.464;11.964;2023-04-19T01:36:12;2.20;;;2.10;;
46931;SDS011;32670;51.464;11.964;2023-04-19T01:38:37;2.70;;;2.50;;
46931;SDS011;32670;51.464;11.964;2023-04-19T01:41:02;2.47;;;2.30;;
46931;SDS011;32670;51.464;11.964;2023-04-19T01:43:28;2.90;;;2.70;;
46931;SDS011;32670;51.464;11.964;2023-04-19T01:45:54;2.40;;;2.20;;
46931;SDS011;32670;51.464;11.964;2023-04-19T01:48:19;2.70;;;2.50;;
46931;SDS011;32670;51.464;11.964;2023-04-19T01:50:44;2.57;;;2.20;;
46931;SDS011;32670;51.464;11.964;2023-04-19T01:53:10;3.13;;;2.47;;
46931;SDS011;32670;51.464;11.964;2023-04-19T01:55:35;3.20;;;2.27;;
46931;SDS011;32670;51.464;11.964;2023-04-19T01:58:01;2.43;;;2.23;;
46931;SDS011;32670;51.464;11.964;2023-04-19T02:00:26;2.47;;;2.27;;
46931;SDS011;32670;51.464;11.964;2023-04-19T02:02:52;2.57;;;2.37;;
46931;SDS011;32670;51.464;11.964;2023-04-19T02:05:17;2.67;;;2.40;;
46931;SDS011;32670;51.464;11.964;2023-04-19T02:07:43;2.33;;;2.13;;
46931;SDS011;32670;51.464;11.964;2023-04-19T02:10:09;4.83;;;2.27;;
46931;SDS011;32670;51.464;11.964;2023-04-19T02:12:35;4.23;;;2.17;;
46931;SDS011;32670;51.464;11.964;2023-04-19T02:15:00;2.97;;;2.07;;
46931;SDS011;32670;51.464;11.964;2023-04-19T02:17:26;3.50;;;2.40;;
46931;SDS011;32670;51.464;11.964;2023-04-19T02:19:52;2.90;;;2.70;;
46931;SDS011;32670;51.464;11.964;2023-04-19T02:22:18;7.43;;;2.10;;
46931;SDS011;32670;51.464;11.964;2023-04-19T02:24:44;2.67;;;2.40;;
46931;SDS011;32670;51.464;11.964;2023-04-19T02:27:09;2.47;;;2.23;;
46931;SDS011;32670;51.464;11.964;2023-04-19T02:29:35;2.47;;;2.27;;
46931;SDS011;32670;51.464;11.964;2023-04-19T02:32:01;2.50;;;2.30;;
46931;SDS011;32670;51.464;11.964;2023-04-19T02:34:30;2.70;;;2.10;;
46931;SDS011;32670;51.464;11.964;2023-04-19T02:36:55;2.93;;;2.13;;
46931;SDS011;32670;51.464;11.964;2023-04-19T02:39:21;3.20;;;2.03;;
46931;SDS011;32670;51.464;11.964;2023-04-19T02:41:46;2.50;;;2.10;;
46931;SDS011;32670;51.464;11.964;2023-04-19T02:44:12;2.43;;;2.23;;
46931;SDS011;32670;51.464;11.964;2023-04-19T02:46:37;2.30;;;2.10;;
46931;SDS011;32670;51.464;11.964;2023-04-19T02:49:03;2.90;;;2.00;;
46931;SDS011;32670;51.464;11.964;2023-04-19T02:51:28;4.57;;;1.90;;
46931;SDS011;32670;51.464;11.964;2023-04-19T02:53:54;2.23;;;2.13;;
46931;SDS011;32670;51.464;11.964;2023-04-19T02:56:20;6.03;;;2.30;;
46931;SDS011;32670;51.464;11.964;2023-04-19T02:58:45;2.17;;;1.93;;
46931;SDS011;32670;51.464;11.964;2023-04-19T03:01:11;2.23;;;2.00;;
46931;SDS011;32670;51.464;11.964;2023-04-19T03:03:36;3.07;;;2.10;;
46931;SDS011;32670;51.464;11.964;2023-04-19T03:06:01;2.37;;;2.17;;
46931;SDS011;32670;51.464;11.964;2023-04-19T03:08:27;2.20;;;2.03;;
46931;SDS011;32670;51.464;11.964;2023-04-19T03:10:53;2.20;;;2.00;;
46931;SDS011;32670;51.464;11.964;2023-04-19T03:13:18;4.07;;;2.20;;
46931;SDS011;32670;51.464;11.964;2023-04-19T03:15:44;2.63;;;2.20;;
46931;SDS011;32670;51.464;11.964;2023-04-19T03:18:09;2.93;;;2.00;;
46931;SDS011;32670;51.464;11.964;2023-04-19T03:20:35;2.20;;;1.90;;
46931;SDS011;32670;51.464;11.964;2023-04-19T03:23:00;2.33;;;2.13;;
46931;SDS011;32670;51.464;11.964;2023-04-19T03:25:26;3.67;;;2.20;;
46931;SDS011;32670;51.464;11.964;2023-04-19T03:27:51;2.30;;;2.10;;
46931;SDS011;32670;51.464;11.964;2023-04-19T03:30:17;2.20;;;2.00;;
46931;SDS011;32670;51.464;11.964;2023-04-19T03:32:42;2.17;;;2.00;;
46931;SDS011;32670;51.464;11.964;2023-04-19T03:35:08;2.10;;;1.90;;
46931;SDS011;32670;51.464;11.964;2023-04-19T03:37:34;2.10;;;1.90;;
46931;SDS011;32670;51.464;11.964;2023-04-19T03:40:00;3.63;;;1.90;;
46931;SDS011;32670;51.464;11.964;2023-04-19T03:42:25;1.90;;;1.80;;
46931;SDS011;32670;51.464;11.964;2023-04-19T03:44:51;2.33;;;2.13;;
46931;SDS011;32670;51.464;11.964;2023-04-19T03:47:16;3.23;;;1.70;;
46931;SDS011;32670;51.464;11.964;2023-04-19T03:49:41;2.27;;;2.10;;
46931;SDS011;32670;51.464;11.964;2023-04-19T03:52:07;2.13;;;2.03;;
46931;SDS011;32670;51.464;11.964;2023-04-19T03:54:33;1.90;;;1.80;;
46931;SDS011;32670;51.464;11.964;2023-04-19T03:56:58;2.03;;;1.83;;
46931;SDS011;32670;51.464;11.964;2023-04-19T03:59:24;2.23;;;1.60;;
46931;SDS011;32670;51.464;11.964;2023-04-19T04:01:50;1.77;;;1.67;;
46931;SDS011;32670;51.464;11.964;2023-04-19T04:04:15;3.67;;;2.00;;
46931;SDS011;32670;51.464;11.964;2023-04-19T04:06:41;2.23;;;2.03;;
46931;SDS011;32670;51.464;11.964;2023-04-19T04:09:06;1.80;;;1.70;;
46931;SDS011;32670;51.464;11.964;2023-04-19T04:11:32;1.90;;;1.80;;
46931;SDS011;32670;51.464;11.964;2023-04-19T04:13:57;2.27;;;1.70;;
46931;SDS011;32670;51.464;11.964;2023-04-19T04:16:23;2.10;;;1.50;;
46931;SDS011;32670;51.464;11.964;2023-04-19T04:18:48;2.10;;;1.50;;
46931;SDS011;32670;51.464;11.964;2023-04-19T04:21:13;2.90;;;1.70;;
46931;SDS011;32670;51.464;11.964;2023-04-19T04:23:39;2.30;;;1.80;;
46931;SDS011;32670;51.464;11.964;2023-04-19T04:26:05;1.93;;;1.80;;
46931;SDS011;32670;51.464;11.964;2023-04-19T04:28:33;1.80;;;1.70;;
46931;SDS011;32670;51.464;11.964;2023-04-19T04:30:59;1.90;;;1.80;;
46931;SDS011;32670;51.464;11.964;2023-04-19T04:33:25;1.60;;;1.50;;
46931;SDS011;32670;51.464;11.964;2023-04-19T04:35:52;1.97;;;1.53;;
46931;SDS011;32670;51.464;11.964;2023-04-19T04:38:19;2.60;;;2.03;;
46931;SDS011;32670;51.464;11.964;2023-04-19T04:40:48;3.63;;;2.00;;
46931;SDS011;32670;51.464;11.964;2023-04-19T04:43:15;2.60;;;1.90;;
46931;SDS011;32670;51.464;11.964;2023-04-19T04:45:40;6.50;;;2.00;;
46931;SDS011;32670;51.464;11.964;2023-04-19T04:48:08;2.93;;;2.07;;
46931;SDS011;32670;51.464;11.964;2023-04-19T04:50:33;3.90;;;2.17;;
46931;SDS011;32670;51.464;11.964;2023-04-19T04:52:59;3.00;;;2.13;;
46931;SDS011;32670;51.464;11.964;2023-04-19T04:55:24;2.10;;;2.00;;
46931;SDS011;32670;51.464;11.964;2023-04-19T04:57:50;4.03;;;2.27;;
46931;SDS011;32670;51.464;11.964;2023-04-19T05:00:15;2.77;;;2.50;;
46931;SDS011;32670;51.464;11.964;2023-04-19T05:02:41;3.17;;;2.17;;
46931;SDS011;32670;51.464;11.964;2023-04-19T05:05:07;2.50;;;2.30;;
46931;SDS011;32670;51.464;11.964;2023-04-19T05:07:35;2.07;;;1.97;;
46931;SDS011;32670;51.464;11.964;2023-04-19T05:10:00;2.47;;;1.93;;
46931;SDS011;32670;51.464;11.964;2023-04-19T05:12:25;3.00;;;2.20;;
46931;SDS011;32670;51.464;11.964;2023-04-19T05:14:51;2.70;;;2.20;;
46931;SDS011;32670;51.464;11.964;2023-04-19T05:17:17;2.27;;;2.17;;
46931;SDS011;32670;51.464;11.964;2023-04-19T05:19:42;3.67;;;2.13;;
46931;SDS011;32670;51.464;11.964;2023-04-19T05:22:08;4.03;;;2.20;;
46931;SDS011;32670;51.464;11.964;2023-04-19T05:24:33;2.90;;;2.00;;
46931;SDS011;32670;51.464;11.964;2023-04-19T05:26:59;2.40;;;2.20;;
46931;SDS011;32670;51.464;11.964;2023-04-19T05:29:25;4.03;;;2.30;;
46931;SDS011;32670;51.464;11.964;2023-04-19T05:31:51;3.00;;;2.20;;
46931;SDS011;32670;51.464;11.964;2023-04-19T05:34:16;2.30;;;2.10;;
46931;SDS011;32670;51.464;11.964;2023-04-19T05:36:42;4.53;;;2.27;;
46931;SDS011;32670;51.464;11.964;2023-04-19T05:39:07;4.13;;;2.33;;
46931;SDS011;32670;51.464;11.964;2023-04-19T05:41:33;3.33;;;2.10;;
46931;SDS011;32670;51.464;11.964;2023-04-19T05:43:58;2.40;;;2.20;;
46931;SDS011;32670;51.464;11.964;2023-04-19T05:46:24;3.00;;;2.20;;
46931;SDS011;32670;51.464;11.964;2023-04-19T05:48:49;2.33;;;2.13;;
46931;SDS011;32670;51.464;11.964;2023-04-19T05:51:15;4.80;;;2.70;;
46931;SDS011;32670;51.464;11.964;2023-04-19T05:53:42;5.83;;;2.90;;
46931;SDS011;32670;51.464;11.964;2023-04-19T05:56:08;8.67;;;3.53;;
46931;SDS011;32670;51.464;11.964;2023-04-19T05:58:34;9.17;;;3.50;;
46931;SDS011;32670;51.464;11.964;2023-04-19T06:01:00;8.33;;;2.70;;
46931;SDS011;32670;51.464;11.964;2023-04-19T06:03:26;5.30;;;2.53;;
46931;SDS011;32670;51.464;11.964;2023-04-19T06:05:51;4.80;;;2.40;;
46931;SDS011;32670;51.464;11.964;2023-04-19T06:08:17;4.70;;;2.70;;
46931;SDS011;32670;51.464;11.964;2023-04-19T06:10:42;4.27;;;2.43;;
46931;SDS011;32670;51.464;11.964;2023-04-19T06:13:11;2.77;;;2.37;;
46931;SDS011;32670;51.464;11.964;2023-04-19T06:15:36;3.73;;;2.30;;
46931;SDS011;32670;51.464;11.964;2023-04-19T06:18:03;4.30;;;2.40;;
46931;SDS011;32670;51.464;11.964;2023-04-19T06:20:33;2.67;;;2.20;;
46931;SDS011;32670;51.464;11.964;2023-04-19T06:23:03;3.40;;;2.23;;
46931;SDS011;32670;51.464;11.964;2023-04-19T06:25:29;11.87;;;2.37;;
46931;SDS011;32670;51.464;11.964;2023-04-19T06:27:55;3.97;;;2.40;;
46931;SDS011;32670;51.464;11.964;2023-04-19T06:30:20;3.63;;;2.10;;
46931;SDS011;32670;51.464;11.964;2023-04-19T06:32:46;2.73;;;2.13;;
46931;SDS011;32670;51.464;11.964;2023-04-19T06:35:11;3.10;;;1.93;;
46931;SDS011;32670;51.464;11.964;2023-04-19T06:37:36;4.20;;;1.90;;
46931;SDS011;32670;51.464;11.964;2023-04-19T06:40:02;4.07;;;2.10;;
46931;SDS011;32670;51.464;11.964;2023-04-19T06:42:32;1.87;;;1.50;;
46931;SDS011;32670;51.464;11.964;2023-04-19T06:44:58;3.63;;;1.90;;
46931;SDS011;32670;51.464;11.964;2023-04-19T06:47:23;2.43;;;1.80;;
46931;SDS011;32670;51.464;11.964;2023-04-19T06:49:49;3.77;;;1.80;;
46931;SDS011;32670;51.464;11.964;2023-04-19T06:52:14;4.37;;;1.97;;
46931;SDS011;32670;51.464;11.964;2023-04-19T06:54:40;2.20;;;1.80;;
46931;SDS011;32670;51.464;11.964;2023-04-19T06:57:05;4.40;;;1.93;;
46931;SDS011;32670;51.464;11.964;2023-04-19T06:59:31;2.67;;;1.90;;
46931;SDS011;32670;51.464;11.964;2023-04-19T07:01:57;2.00;;;1.80;;
46931;SDS011;32670;51.464;11.964;2023-04-19T07:04:23;2.57;;;1.70;;
46931;SDS011;32670;51.464;11.964;2023-04-19T07:06:50;2.70;;;2.10;;
46931;SDS011;32670;51.464;11.964;2023-04-19T07:09:15;2.30;;;1.70;;
46931;SDS011;32670;51.464;11.964;2023-04-19T07:11:41;3.40;;;2.20;;
46931;SDS011;32670;51.464;11.964;2023-04-19T07:14:06;2.57;;;1.87;;
46931;SDS011;32670;51.464;11.964;2023-04-19T07:16:32;3.40;;;2.03;;
46931;SDS011;32670;51.464;11.964;2023-04-19T07:18:57;4.00;;;1.77;;
46931;SDS011;32670;51.464;11.964;2023-04-19T07:21:23;2.00;;;1.80;;
46931;SDS011;32670;51.464;11.964;2023-04-19T07:23:52;2.50;;;1.60;;
46931;SDS011;32670;51.464;11.964;2023-04-19T07:26:18;2.07;;;1.87;;
46931;SDS011;32670;51.464;11.964;2023-04-19T07:28:43;3.53;;;1.83;;
46931;SDS011;32670;51.464;11.964;2023-04-19T07:31:13;2.87;;;1.67;;
46931;SDS011;32670;51.464;11.964;2023-04-19T07:33:40;3.07;;;1.93;;
46931;SDS011;32670;51.464;11.964;2023-04-19T07:36:06;2.10;;;1.67;;
46931;SDS011;32670;51.464;11.964;2023-04-19T07:38:31;2.33;;;1.80;;
46931;SDS011;32670;51.464;11.964;2023-04-19T07:40:57;2.23;;;1.80;;
46931;SDS011;32670;51.464;11.964;2023-04-19T07:43:22;2.03;;;1.80;;
46931;SDS011;32670;51.464;11.964;2023-04-19T07:45:48;3.27;;;2.07;;
46931;SDS011;32670;51.464;11.964;2023-04-19T07:48:13;3.43;;;2.13;;
46931;SDS011;32670;51.464;11.964;2023-04-19T07:50:39;4.43;;;1.90;;
46931;SDS011;32670;51.464;11.964;2023-04-19T07:53:04;3.27;;;1.87;;
46931;SDS011;32670;51.464;11.964;2023-04-19T07:55:30;3.27;;;2.23;;
46931;SDS011;32670;51.464;11.964;2023-04-19T07:57:55;3.30;;;1.67;;
46931;SDS011;32670;51.464;11.964;2023-04-19T08:00:21;3.97;;;1.93;;
46931;SDS011;32670;51.464;11.964;2023-04-19T08:02:47;3.07;;;1.93;;
46931;SDS011;32670;51.464;11.964;2023-04-19T08:05:13;2.53;;;2.03;;
46931;SDS011;32670;51.464;11.964;2023-04-19T08:07:41;2.77;;;1.90;;
46931;SDS011;32670;51.464;11.964;2023-04-19T08:10:07;4.47;;;1.93;;
46931;SDS011;32670;51.464;11.964;2023-04-19T08:12:33;3.93;;;2.20;;
46931;SDS011;32670;51.464;11.964;2023-04-19T08:14:58;3.37;;;1.73;;
46931;SDS011;32670;51.464;11.964;2023-04-19T08:17:25;2.07;;;1.87;;
46931;SDS011;32670;51.464;11.964;2023-04-19T08:19:51;2.67;;;1.93;;
46931;SDS011;32670;51.464;11.964;2023-04-19T08:22:16;2.83;;;1.73;;
46931;SDS011;32670;51.464;11.964;2023-04-19T08:24:42;4.27;;;2.13;;
46931;SDS011;32670;51.464;11.964;2023-04-19T08:27:11;3.67;;;2.00;;
46931;SDS011;32670;51.464;11.964;2023-04-19T08:29:36;3.30;;;2.00;;
46931;SDS011;32670;51.464;11.964;2023-04-19T08:32:05;2.10;;;1.73;;
46931;SDS011;32670;51.464;11.964;2023-04-19T08:34:33;4.93;;;2.00;;
46931;SDS011;32670;51.464;11.964;2023-04-19T08:36:59;4.80;;;1.90;;
46931;SDS011;32670;51.464;11.964;2023-04-19T08:39:26;3.30;;;2.00;;
46931;SDS011;32670;51.464;11.964;2023-04-19T08:41:51;3.17;;;1.77;;
46931;SDS011;32670;51.464;11.964;2023-04-19T08:44:19;9.00;;;2.03;;
46931;SDS011;32670;51.464;11.964;2023-04-19T08:46:46;6.90;;;1.90;;
46931;SDS011;32670;51.464;11.964;2023-04-19T08:49:14;9.20;;;2.23;;
46931;SDS011;32670;51.464;11.964;2023-04-19T08:51:40;2.83;;;1.80;;
46931;SDS011;32670;51.464;11.964;2023-04-19T08:54:08;2.57;;;1.50;;
46931;SDS011;32670;51.464;11.964;2023-04-19T08:56:34;5.03;;;1.80;;
46931;SDS011;32670;51.464;11.964;2023-04-19T08:59:00;3.03;;;1.50;;
46931;SDS011;32670;51.464;11.964;2023-04-19T09:01:26;6.03;;;1.67;;
46931;SDS011;32670;51.464;11.964;2023-04-19T09:03:51;3.70;;;1.60;;
46931;SDS011;32670;51.464;11.964;2023-04-19T09:06:17;3.27;;;1.50;;
46931;SDS011;32670;51.464;11.964;2023-04-19T09:08:42;3.73;;;1.40;;
46931;SDS011;32670;51.464;11.964;2023-04-19T09:11:08;3.23;;;1.50;;
46931;SDS011;32670;51.464;11.964;2023-04-19T09:13:33;3.20;;;1.70;;
46931;SDS011;32670;51.464;11.964;2023-04-19T09:16:02;1.87;;;1.33;;
46931;SDS011;32670;51.464;11.964;2023-04-19T09:18:28;2.23;;;1.50;;
46931;SDS011;32670;51.464;11.964;2023-04-19T09:20:54;5.33;;;1.57;;
46931;SDS011;32670;51.464;11.964;2023-04-19T09:23:23;3.50;;;1.37;;
46931;SDS011;32670;51.464;11.964;2023-04-19T09:25:50;3.97;;;1.30;;
46931;SDS011;32670;51.464;11.964;2023-04-19T09:28:21;2.93;;;1.47;;
46931;SDS011;32670;51.464;11.964;2023-04-19T09:30:47;2.30;;;1.50;;
46931;SDS011;32670;51.464;11.964;2023-04-19T09:33:17;3.53;;;1.53;;
46931;SDS011;32670;51.464;11.964;2023-04-19T09:35:59;2.37;;;1.30;;
46931;SDS011;32670;51.464;11.964;2023-04-19T09:38:25;2.33;;;1.50;;
46931;SDS011;32670;51.464;11.964;2023-04-19T09:40:50;1.73;;;1.20;;
46931;SDS011;32670;51.464;11.964;2023-04-19T09:43:23;4.73;;;1.40;;
46931;SDS011;32670;51.464;11.964;2023-04-19T09:45:49;3.23;;;1.63;;
46931;SDS011;32670;51.464;11.964;2023-04-19T09:48:15;1.50;;;1.13;;
46931;SDS011;32670;51.464;11.964;2023-04-19T09:50:54;2.83;;;1.67;;
46931;SDS011;32670;51.464;11.964;2023-04-19T09:53:24;1.40;;;1.30;;
46931;SDS011;32670;51.464;11.964;2023-04-19T09:55:51;1.80;;;1.20;;
46931;SDS011;32670;51.464;11.964;2023-04-19T09:58:18;2.50;;;1.40;;
46931;SDS011;32670;51.464;11.964;2023-04-19T10:00:44;2.20;;;1.20;;
46931;SDS011;32670;51.464;11.964;2023-04-19T10:03:14;1.40;;;1.00;;
46931;SDS011;32670;51.464;11.964;2023-04-19T10:05:41;1.70;;;1.40;;
46931;SDS011;32670;51.464;11.964;2023-04-19T10:08:07;1.80;;;1.30;;
46931;SDS011;32670;51.464;11.964;2023-04-19T10:10:34;1.80;;;1.20;;
46931;SDS011;32670;51.464;11.964;2023-04-19T10:13:05;1.87;;;1.20;;
46931;SDS011;32670;51.464;11.964;2023-04-19T10:15:33;1.40;;;1.30;;
46931;SDS011;32670;51.464;11.964;2023-04-19T10:18:00;2.63;;;1.40;;
46931;SDS011;32670;51.464;11.964;2023-04-19T10:20:31;1.77;;;1.20;;
46931;SDS011;32670;51.464;11.964;2023-04-19T10:22:56;2.60;;;1.30;;
46931;SDS011;32670;51.464;11.964;2023-04-19T10:25:29;1.60;;;1.43;;
46931;SDS011;32670;51.464;11.964;2023-04-19T10:27:55;2.50;;;1.73;;
46931;SDS011;32670;51.464;11.964;2023-04-19T10:30:21;4.77;;;1.80;;
46931;SDS011;32670;51.464;11.964;2023-04-19T10:32:52;1.57;;;1.47;;
46931;SDS011;32670;51.464;11.964;2023-04-19T10:35:33;1.90;;;1.80;;
46931;SDS011;32670;51.464;11.964;2023-04-19T10:38:06;2.00;;;1.50;;
46931;SDS011;32670;51.464;11.964;2023-04-19T10:40:55;1.47;;;1.33;;
46931;SDS011;32670;51.464;11.964;2023-04-19T10:43:25;1.43;;;1.33;;
46931;SDS011;32670;51.464;11.964;2023-04-19T10:46:05;1.40;;;1.30;;
46931;SDS011;32670;51.464;11.964;2023-04-19T10:48:33;1.93;;;1.57;;
46931;SDS011;32670;51.464;11.964;2023-04-19T10:51:10;1.53;;;1.43;;
46931;SDS011;32670;51.464;11.964;2023-04-19T10:53:46;3.27;;;1.60;;
46931;SDS011;32670;51.464;11.964;2023-04-19T10:56:21;1.40;;;1.30;;
46931;SDS011;32670;51.464;11.964;2023-04-19T11:04:13;2.03;;;1.20;;
46931;SDS011;32670;51.464;11.964;2023-04-19T11:09:22;1.40;;;1.23;;
46931;SDS011;32670;51.464;11.964;2023-04-19T11:11:51;1.20;;;1.10;;
46931;SDS011;32670;51.464;11.964;2023-04-19T11:14:17;1.33;;;1.17;;
46931;SDS011;32670;51.464;11.964;2023-04-19T11:16:45;1.40;;;1.10;;
46931;SDS011;32670;51.464;11.964;2023-04-19T11:19:17;1.37;;;1.27;;
46931;SDS011;32670;51.464;11.964;2023-04-19T11:21:46;1.53;;;1.40;;
46931;SDS011;32670;51.464;11.964;2023-04-19T11:24:13;1.10;;;1.10;;
46931;SDS011;32670;51.464;11.964;2023-04-19T11:26:44;2.03;;;1.33;;
46931;SDS011;32670;51.464;11.964;2023-04-19T11:29:11;1.40;;;1.30;;
46931;SDS011;32670;51.464;11.964;2023-04-19T11:31:36;1.33;;;1.23;;
46931;SDS011;32670;51.464;11.964;2023-04-19T11:34:02;1.23;;;0.93;;
46931;SDS011;32670;51.464;11.964;2023-04-19T11:36:28;1.40;;;1.30;;
46931;SDS011;32670;51.464;11.964;2023-04-19T11:38:55;1.33;;;1.20;;
46931;SDS011;32670;51.464;11.964;2023-04-19T11:41:21;1.70;;;1.20;;
46931;SDS011;32670;51.464;11.964;2023-04-19T11:43:47;1.30;;;1.20;;
46931;SDS011;32670;51.464;11.964;2023-04-19T11:46:12;1.37;;;1.23;;
46931;SDS011;32670;51.464;11.964;2023-04-19T11:48:38;1.40;;;1.30;;
46931;SDS011;32670;51.464;11.964;2023-04-19T11:51:17;1.30;;;1.20;;
46931;SDS011;32670;51.464;11.964;2023-04-19T11:53:42;1.30;;;1.20;;
46931;SDS011;32670;51.464;11.964;2023-04-19T11:56:08;1.33;;;1.20;;
46931;SDS011;32670;51.464;11.964;2023-04-19T11:58:41;2.00;;;1.47;;
46931;SDS011;32670;51.464;11.964;2023-04-19T12:01:12;1.40;;;1.30;;
46931;SDS011;32670;51.464;11.964;2023-04-19T12:03:45;1.43;;;1.27;;
46931;SDS011;32670;51.464;11.964;2023-04-19T12:06:16;1.30;;;1.10;;
46931;SDS011;32670;51.464;11.964;2023-04-19T12:08:44;1.17;;;1.07;;
46931;SDS011;32670;51.464;11.964;2023-04-19T12:11:11;2.03;;;1.10;;
46931;SDS011;32670;51.464;11.964;2023-04-19T12:13:38;1.30;;;1.20;;
46931;SDS011;32670;51.464;11.964;2023-04-19T12:16:08;1.30;;;1.20;;
46931;SDS011;32670;51.464;11.964;2023-04-19T12:18:41;1.17;;;1.07;;
46931;SDS011;32670;51.464;11.964;2023-04-19T12:21:09;2.87;;;1.30;;
46931;SDS011;32670;51.464;11.964;2023-04-19T12:23:36;1.73;;;1.30;;
46931;SDS011;32670;51.464;11.964;2023-04-19T12:26:03;1.23;;;1.00;;
46931;SDS011;32670;51.464;11.964;2023-04-19T12:28:31;1.10;;;1.00;;
46931;SDS011;32670;51.464;11.964;2023-04-19T12:30:57;1.33;;;1.10;;
46931;SDS011;32670;51.464;11.964;2023-04-19T12:33:22;1.20;;;1.10;;
46931;SDS011;32670;51.464;11.964;2023-04-19T12:35:48;1.17;;;1.00;;
46931;SDS011;32670;51.464;11.964;2023-04-19T12:38:13;1.17;;;1.00;;
46931;SDS011;32670;51.464;11.964;2023-04-19T12:40:38;1.10;;;1.10;;
46931;SDS011;32670;51.464;11.964;2023-04-19T12:43:05;0.90;;;0.90;;
46931;SDS011;32670;51.464;11.964;2023-04-19T12:45:31;2.30;;;1.10;;
46931;SDS011;32670;51.464;11.964;2023-04-19T12:47:57;1.17;;;1.07;;
46931;SDS011;32670;51.464;11.964;2023-04-19T12:50:22;1.70;;;1.00;;
46931;SDS011;32670;51.464;11.964;2023-04-19T12:52:48;1.10;;;1.10;;
46931;SDS011;32670;51.464;11.964;2023-04-19T12:55:15;1.10;;;1.00;;
46931;SDS011;32670;51.464;11.964;2023-04-19T12:57:41;1.47;;;1.30;;
46931;SDS011;32670;51.464;11.964;2023-04-19T13:00:07;3.47;;;2.57;;
46931;SDS011;32670;51.464;11.964;2023-04-19T13:02:34;1.70;;;1.60;;
46931;SDS011;32670;51.464;11.964;2023-04-19T13:05:00;2.57;;;1.60;;
46931;SDS011;32670;51.464;11.964;2023-04-19T13:07:25;2.93;;;1.70;;
46931;SDS011;32670;51.464;11.964;2023-04-19T13:09:52;1.60;;;1.50;;
46931;SDS011;32670;51.464;11.964;2023-04-19T13:12:18;1.60;;;1.50;;
46931;SDS011;32670;51.464;11.964;2023-04-19T13:14:43;3.50;;;2.20;;
46931;SDS011;32670;51.464;11.964;2023-04-19T13:17:12;2.50;;;2.10;;
46931;SDS011;32670;51.464;11.964;2023-04-19T13:19:37;1.87;;;1.63;;
46931;SDS011;32670;51.464;11.964;2023-04-19T13:22:02;1.87;;;1.67;;
46931;SDS011;32670;51.464;11.964;2023-04-19T13:24:28;2.33;;;1.77;;
46931;SDS011;32670;51.464;11.964;2023-04-19T13:26:53;2.00;;;1.80;;
46931;SDS011;32670;51.464;11.964;2023-04-19T13:29:19;2.23;;;2.00;;
46931;SDS011;32670;51.464;11.964;2023-04-19T13:31:44;1.70;;;1.60;;
46931;SDS011;32670;51.464;11.964;2023-04-19T13:34:10;1.87;;;1.77;;
46931;SDS011;32670;51.464;11.964;2023-04-19T13:36:36;2.13;;;1.60;;
46931;SDS011;32670;51.464;11.964;2023-04-19T13:39:01;1.50;;;1.40;;
46931;SDS011;32670;51.464;11.964;2023-04-19T13:41:27;1.60;;;1.50;;
46931;SDS011;32670;51.464;11.964;2023-04-19T13:43:53;1.63;;;1.53;;
46931;SDS011;32670;51.464;11.964;2023-04-19T13:46:20;1.60;;;1.50;;
46931;SDS011;32670;51.464;11.964;2023-04-19T13:48:45;1.87;;;1.40;;
46931;SDS011;32670;51.464;11.964;2023-04-19T13:51:10;1.90;;;1.53;;
46931;SDS011;32670;51.464;11.964;2023-04-19T13:53:36;1.90;;;1.80;;
46931;SDS011;32670;51.464;11.964;2023-04-19T13:56:01;2.77;;;1.60;;
46931;SDS011;32670;51.464;11.964;2023-04-19T13:58:27;1.87;;;1.60;;
46931;SDS011;32670;51.464;11.964;2023-04-19T14:00:53;1.90;;;1.70;;
46931;SDS011;32670;51.464;11.964;2023-04-19T14:03:18;1.73;;;1.63;;
46931;SDS011;32670;51.464;11.964;2023-04-19T14:05:45;2.60;;;1.80;;
46931;SDS011;32670;51.464;11.964;2023-04-19T14:08:10;1.70;;;1.60;;
46931;SDS011;32670;51.464;11.964;2023-04-19T14:10:36;3.63;;;1.70;;
46931;SDS011;32670;51.464;11.964;2023-04-19T14:13:02;1.87;;;1.73;;
46931;SDS011;32670;51.464;11.964;2023-04-19T14:15:27;2.73;;;1.80;;
46931;SDS011;32670;51.464;11.964;2023-04-19T14:17:52;1.90;;;1.60;;
46931;SDS011;32670;51.464;11.964;2023-04-19T14:20:18;1.53;;;1.43;;
46931;SDS011;32670;51.464;11.964;2023-04-19T14:22:44;2.00;;;1.70;;
46931;SDS011;32670;51.464;11.964;2023-04-19T14:25:10;1.80;;;1.60;;
46931;SDS011;32670;51.464;11.964;2023-04-19T14:27:39;1.80;;;1.70;;
46931;SDS011;32670;51.464;11.964;2023-04-19T14:30:05;1.53;;;1.43;;
46931;SDS011;32670;51.464;11.964;2023-04-19T14:32:31;1.50;;;1.40;;
46931;SDS011;32670;51.464;11.964;2023-04-19T14:34:57;1.70;;;1.60;;
46931;SDS011;32670;51.464;11.964;2023-04-19T14:37:23;1.60;;;1.50;;